Time;durP1;ratioP1;P1;durP2;ratioP2;P2;SDS_P1;SDS_P2;PMS_P1;PMS_P2;Temp;Humidity;BMP_temperature;BMP_pressure;BME280_temperature;BME280_humidity;BME280_pressure;Samples;Min_cycle;Max_cycle;Signal;HPM_P1;HPM_P2
2023/02/27 00:02:34;;;;;;;5.73;3.90;;;;;;;;;;6264728;28;20060;-75
2023/02/27 00:05:36;;;;;;;5.68;3.38;;;;;;;;;;6265248;28;20060;-74
2023/02/27 00:08:44;;;;;;;5.90;3.38;;;;;;;;;;6264085;28;20057;-75
2023/02/27 00:11:46;;;;;;;3.83;3.05;;;;;;;;;;6267791;28;20111;-75
2023/02/27 00:15:08;;;;;;;6.05;3.40;;;;;;;;;;6252650;28;20062;-74
2023/02/27 00:18:10;;;;;;;4.18;2.70;;;;;;;;;;6250478;28;20139;-75
2023/02/27 00:21:12;;;;;;;4.13;2.58;;;;;;;;;;6265551;28;20059;-75
2023/02/27 00:24:21;;;;;;;3.67;2.20;;;;;;;;;;6266368;28;20064;-75
2023/02/27 00:27:24;;;;;;;5.07;2.70;;;;;;;;;;6262927;28;20054;-74
2023/02/27 00:30:32;;;;;;;3.38;1.90;;;;;;;;;;6262709;28;20321;-73
2023/02/27 00:33:34;;;;;;;11.07;2.65;;;;;;;;;;6238994;28;20117;-75
2023/02/27 00:36:36;;;;;;;3.10;2.15;;;;;;;;;;6227927;28;20065;-75
2023/02/27 00:39:38;;;;;;;3.53;2.35;;;;;;;;;;6217220;28;20397;-75
2023/02/27 00:42:40;;;;;;;3.38;2.65;;;;;;;;;;6216605;28;20061;-74
2023/02/27 00:45:43;;;;;;;2.78;2.10;;;;;;;;;;6216459;28;20157;-74
2023/02/27 00:48:48;;;;;;;6.50;2.20;;;;;;;;;;6208310;28;20050;-75
2023/02/27 00:51:50;;;;;;;2.60;2.08;;;;;;;;;;6232332;28;20315;-74
2023/02/27 00:54:54;;;;;;;3.25;2.20;;;;;;;;;;6216044;28;20058;-74
2023/02/27 00:57:55;;;;;;;3.22;2.20;;;;;;;;;;6241131;28;20372;-75
2023/02/27 01:01:00;;;;;;;2.78;1.77;;;;;;;;;;6236655;28;20054;-75
2023/02/27 01:04:02;;;;;;;3.75;1.80;;;;;;;;;;6237812;28;20109;-74
2023/02/27 01:07:04;;;;;;;3.33;1.90;;;;;;;;;;6239299;28;20105;-72
2023/02/27 01:10:28;;;;;;;3.70;2.13;;;;;;;;;;6239011;28;20241;-75
2023/02/27 01:14:05;;;;;;;3.78;1.95;;;;;;;;;;6232193;28;20054;-77
2023/02/27 01:17:08;;;;;;;3.10;1.63;;;;;;;;;;6225698;28;20088;-78
2023/02/27 01:20:17;;;;;;;5.10;1.75;;;;;;;;;;6229231;28;20317;-74
2023/02/27 01:23:19;;;;;;;3.63;1.95;;;;;;;;;;6238212;28;20348;-76
2023/02/27 01:26:21;;;;;;;3.05;1.80;;;;;;;;;;6240026;28;20096;-75
2023/02/27 01:29:23;;;;;;;2.25;1.75;;;;;;;;;;6239545;28;20053;-78
2023/02/27 01:32:29;;;;;;;2.75;1.83;;;;;;;;;;6254267;28;20233;-74
2023/02/27 01:35:31;;;;;;;3.40;1.92;;;;;;;;;;6261136;28;20075;-74
2023/02/27 01:38:33;;;;;;;2.38;1.90;;;;;;;;;;6266834;28;20214;-73
2023/02/27 01:41:36;;;;;;;3.13;1.90;;;;;;;;;;6264962;28;20133;-74
2023/02/27 01:45:02;;;;;;;2.65;2.13;;;;;;;;;;6263123;28;20049;-74
2023/02/27 01:48:10;;;;;;;3.00;1.80;;;;;;;;;;6260335;28;20282;-73
2023/02/27 01:51:17;;;;;;;3.88;2.00;;;;;;;;;;6251036;28;20049;-74
2023/02/27 01:54:23;;;;;;;3.28;1.90;;;;;;;;;;6253889;28;20068;-73
2023/02/27 01:57:25;;;;;;;2.72;2.05;;;;;;;;;;6262495;28;20368;-74
2023/02/27 02:00:29;;;;;;;3.03;1.85;;;;;;;;;;6264664;28;20067;-71
2023/02/27 02:03:36;;;;;;;4.43;2.40;;;;;;;;;;6262816;28;20054;-74
2023/02/27 02:06:57;;;;;;;4.03;2.17;;;;;;;;;;6251858;28;20060;-74
2023/02/27 02:10:00;;;;;;;2.40;1.92;;;;;;;;;;6254504;28;20253;-73
2023/02/27 02:13:02;;;;;;;2.92;2.28;;;;;;;;;;6261473;28;20178;-74
2023/02/27 02:16:22;;;;;;;2.20;1.67;;;;;;;;;;6263157;28;20049;-73
2023/02/27 02:19:56;;;;;;;2.55;2.00;;;;;;;;;;6252553;28;20045;-73
2023/02/27 02:23:36;;;;;;;3.53;2.43;;;;;;;;;;6263579;28;20053;-76
2023/02/27 02:27:18;;;;;;;3.22;2.45;;;;;;;;;;6233687;28;20045;-76
2023/02/27 02:30:59;;;;;;;2.97;2.05;;;;;;;;;;6268339;28;20110;-75
2023/02/27 02:34:33;;;;;;;4.57;2.40;;;;;;;;;;6243787;28;20044;-75
2023/02/27 02:38:02;;;;;;;2.53;1.90;;;;;;;;;;6213915;28;20065;-73
2023/02/27 02:41:10;;;;;;;3.40;2.40;;;;;;;;;;6237210;28;20045;-76
2023/02/27 02:44:19;;;;;;;4.63;2.55;;;;;;;;;;6239321;28;20124;-74
2023/02/27 02:47:30;;;;;;;3.65;2.70;;;;;;;;;;6239775;28;20062;-75
2023/02/27 02:50:40;;;;;;;3.78;2.50;;;;;;;;;;6241957;28;20053;-73
2023/02/27 02:53:47;;;;;;;4.65;2.58;;;;;;;;;;6240877;28;20095;-73
2023/02/27 02:56:57;;;;;;;3.67;2.42;;;;;;;;;;6243312;28;20053;-73
2023/02/27 03:00:04;;;;;;;4.43;2.90;;;;;;;;;;6243022;28;20321;-73
2023/02/27 03:03:10;;;;;;;5.13;2.75;;;;;;;;;;6240272;28;20053;-73
2023/02/27 03:06:16;;;;;;;3.17;2.50;;;;;;;;;;6240756;28;20050;-73
2023/02/27 03:09:22;;;;;;;3.53;2.30;;;;;;;;;;6239618;28;20300;-74
2023/02/27 03:12:25;;;;;;;5.15;2.70;;;;;;;;;;6243570;28;20277;-73
2023/02/27 03:15:30;;;;;;;3.05;2.58;;;;;;;;;;6238060;28;20095;-75
2023/02/27 03:18:34;;;;;;;4.03;2.72;;;;;;;;;;6241811;28;20061;-73
2023/02/27 03:21:37;;;;;;;;;;;;;;;;;;6241938;28;20067;-74
2023/02/27 03:24:41;;;;;;;6.13;2.85;;;;;;;;;;6240091;28;19933;-72
2023/02/27 03:27:48;;;;;;;4.32;3.45;;;;;;;;;;6243015;28;20058;-73
2023/02/27 03:30:53;;;;;;;5.15;3.38;;;;;;;;;;6241747;28;20049;-72
2023/02/27 03:34:00;;;;;;;4.80;3.58;;;;;;;;;;6255724;28;20435;-72
2023/02/27 03:37:05;;;;;;;4.28;3.10;;;;;;;;;;6243196;28;20330;-73
2023/02/27 03:40:15;;;;;;;5.50;3.90;;;;;;;;;;6265312;28;20054;-74
2023/02/27 03:43:24;;;;;;;7.85;4.80;;;;;;;;;;6267104;28;20047;-73
2023/02/27 03:46:27;;;;;;;5.78;4.35;;;;;;;;;;6267994;28;20049;-72
2023/02/27 03:49:29;;;;;;;5.50;4.18;;;;;;;;;;6266767;28;20053;-73
2023/02/27 03:52:31;;;;;;;7.00;4.38;;;;;;;;;;6265637;28;20214;-73
2023/02/27 03:55:36;;;;;;;5.13;3.60;;;;;;;;;;6266243;28;20322;-73
2023/02/27 03:58:39;;;;;;;;;;;;;;;;;;6265089;28;20053;-72
2023/02/27 04:01:41;;;;;;;4.32;3.28;;;;;;;;;;6263968;28;20251;-73
2023/02/27 04:04:43;;;;;;;3.92;3.40;;;;;;;;;;6264511;28;20103;-74
2023/02/27 04:07:51;;;;;;;5.07;3.80;;;;;;;;;;6265246;28;20282;-73
2023/02/27 04:11:04;;;;;;;5.00;3.90;;;;;;;;;;6265969;28;20063;-75
2023/02/27 04:14:23;;;;;;;4.63;3.08;;;;;;;;;;6269108;28;20116;-75
2023/02/27 04:17:26;;;;;;;4.13;3.30;;;;;;;;;;6262992;28;20064;-73
2023/02/27 04:20:42;;;;;;;6.57;3.47;;;;;;;;;;6265863;28;20067;-75
2023/02/27 04:23:51;;;;;;;3.90;2.63;;;;;;;;;;6263860;28;20409;-72
2023/02/27 04:26:55;;;;;;;4.57;2.90;;;;;;;;;;6267076;28;20060;-75
2023/02/27 04:29:59;;;;;;;;;;;;;;;;;;6264620;28;20080;-73
2023/02/27 04:33:07;;;;;;;3.17;2.50;;;;;;;;;;6264840;28;19917;-71
2023/02/27 04:36:12;;;;;;;3.13;2.30;;;;;;;;;;6263632;28;20060;-75
2023/02/27 04:39:19;;;;;;;6.05;2.25;;;;;;;;;;6265639;28;20054;-75
2023/02/27 04:42:23;;;;;;;3.65;2.40;;;;;;;;;;6267005;28;20083;-75
2023/02/27 04:45:27;;;;;;;3.05;2.03;;;;;;;;;;6263280;28;20132;-75
2023/02/27 04:48:33;;;;;;;3.03;2.35;;;;;;;;;;6264110;28;20052;-74
2023/02/27 04:51:39;;;;;;;3.88;2.78;;;;;;;;;;6263472;28;20071;-75
2023/02/27 04:54:43;;;;;;;3.80;2.28;;;;;;;;;;6266871;28;20099;-74
2023/02/27 04:57:50;;;;;;;2.90;2.20;;;;;;;;;;6262649;28;20057;-74
2023/02/27 05:01:02;;;;;;;3.13;2.40;;;;;;;;;;6265285;28;20113;-72
2023/02/27 05:04:06;;;;;;;2.53;2.20;;;;;;;;;;6240698;28;20049;-71
2023/02/27 05:07:10;;;;;;;3.67;2.17;;;;;;;;;;6231618;28;20067;-74
2023/02/27 05:10:15;;;;;;;3.47;1.90;;;;;;;;;;6239659;28;20042;-74
2023/02/27 05:13:21;;;;;;;5.63;2.30;;;;;;;;;;6238757;28;20111;-73
2023/02/27 05:16:28;;;;;;;3.00;2.30;;;;;;;;;;6240476;28;20049;-74
2023/02/27 05:19:30;;;;;;;3.42;2.28;;;;;;;;;;6237905;28;20049;-74
2023/02/27 05:22:37;;;;;;;4.35;2.60;;;;;;;;;;6242225;28;20058;-73
2023/02/27 05:25:45;;;;;;;2.30;2.00;;;;;;;;;;6237578;28;20049;-74
2023/02/27 05:28:51;;;;;;;4.88;2.53;;;;;;;;;;6242175;28;20053;-74
2023/02/27 05:32:03;;;;;;;2.92;2.15;;;;;;;;;;6238113;28;20069;-73
2023/02/27 05:35:11;;;;;;;3.63;2.42;;;;;;;;;;6233485;28;20042;-74
2023/02/27 05:38:15;;;;;;;2.85;1.92;;;;;;;;;;6251492;28;20330;-73
2023/02/27 05:41:20;;;;;;;2.80;2.03;;;;;;;;;;6261848;28;20282;-74
2023/02/27 05:44:24;;;;;;;3.33;2.20;;;;;;;;;;6267805;28;20104;-73
2023/02/27 05:47:30;;;;;;;3.13;2.30;;;;;;;;;;6261042;28;20045;-74
2023/02/27 05:50:33;;;;;;;3.33;2.47;;;;;;;;;;6266302;28;20052;-73
2023/02/27 05:53:39;;;;;;;3.00;2.30;;;;;;;;;;6263485;28;20049;-74
2023/02/27 05:56:42;;;;;;;3.58;2.20;;;;;;;;;;6262598;28;20048;-74
2023/02/27 05:59:50;;;;;;;2.80;2.10;;;;;;;;;;6268445;28;20041;-74
2023/02/27 06:02:53;;;;;;;2.83;1.90;;;;;;;;;;6267450;28;20482;-73
2023/02/27 06:05:57;;;;;;;2.93;2.00;;;;;;;;;;6244314;28;20141;-71
2023/02/27 06:08:59;;;;;;;6.03;3.38;;;;;;;;;;6261687;28;20061;-73
2023/02/27 06:12:01;;;;;;;4.18;2.83;;;;;;;;;;6244843;28;20218;-71
2023/02/27 06:15:04;;;;;;;3.15;2.83;;;;;;;;;;6243702;28;20045;-78
2023/02/27 06:18:11;;;;;;;4.45;3.10;;;;;;;;;;6246981;28;20050;-74
2023/02/27 06:21:13;;;;;;;4.13;3.17;;;;;;;;;;6247093;28;20126;-73
2023/02/27 06:24:15;;;;;;;4.68;3.35;;;;;;;;;;6242836;28;20045;-77
2023/02/27 06:27:17;;;;;;;5.88;4.43;;;;;;;;;;6245361;28;20053;-75
2023/02/27 06:30:19;;;;;;;4.60;3.20;;;;;;;;;;6242969;28;20340;-75
2023/02/27 06:33:22;;;;;;;6.07;3.63;;;;;;;;;;6242679;28;20266;-77
2023/02/27 06:36:24;;;;;;;6.57;4.30;;;;;;;;;;6242385;28;20385;-78
2023/02/27 06:39:26;;;;;;;6.07;3.55;;;;;;;;;;6245233;28;20727;-73
2023/02/27 06:42:29;;;;;;;5.35;3.70;;;;;;;;;;6242984;28;20079;-74
2023/02/27 06:45:31;;;;;;;5.43;3.60;;;;;;;;;;6241511;28;20060;-75
2023/02/27 06:48:34;;;;;;;6.35;4.25;;;;;;;;;;6244014;28;20345;-75
2023/02/27 06:51:36;;;;;;;6.73;4.27;;;;;;;;;;6242933;28;20340;-75
2023/02/27 06:54:38;;;;;;;5.20;3.63;;;;;;;;;;6243410;28;20563;-74
2023/02/27 06:57:39;;;;;;;7.05;4.18;;;;;;;;;;6243725;28;20065;-78
2023/02/27 07:00:42;;;;;;;11.63;4.75;;;;;;;;;;6244700;28;20058;-76
2023/02/27 07:03:45;;;;;;;6.40;4.30;;;;;;;;;;6242622;28;20054;-76
2023/02/27 07:06:47;;;;;;;8.15;4.85;;;;;;;;;;6240496;28;20057;-76
2023/02/27 07:09:49;;;;;;;8.93;5.38;;;;;;;;;;6239048;28;20069;-75
2023/02/27 07:12:52;;;;;;;10.98;5.00;;;;;;;;;;6243670;28;20064;-74
2023/02/27 07:15:54;;;;;;;7.22;4.80;;;;;;;;;;6241989;28;20046;-76
2023/02/27 07:18:57;;;;;;;7.60;4.90;;;;;;;;;;6237766;28;20061;-75
2023/02/27 07:21:59;;;;;;;4.90;3.38;;;;;;;;;;6240864;28;20077;-75
2023/02/27 07:25:01;;;;;;;5.57;3.72;;;;;;;;;;6241151;28;20057;-75
2023/02/27 07:28:03;;;;;;;5.43;3.75;;;;;;;;;;6239595;28;20056;-74
2023/02/27 07:31:05;;;;;;;6.07;3.60;;;;;;;;;;6236269;28;20060;-72
2023/02/27 07:34:10;;;;;;;3.95;2.80;;;;;;;;;;6217564;28;20077;-75
2023/02/27 07:37:12;;;;;;;5.80;3.00;;;;;;;;;;6218697;28;20069;-76
2023/02/27 07:40:14;;;;;;;3.95;2.70;;;;;;;;;;6219308;28;20061;-75
2023/02/27 07:43:16;;;;;;;3.83;2.58;;;;;;;;;;6220841;28;20049;-73
2023/02/27 07:46:17;;;;;;;3.92;2.40;;;;;;;;;;6241081;28;20365;-75
2023/02/27 07:49:21;;;;;;;4.10;2.35;;;;;;;;;;6241127;28;20053;-72
2023/02/27 07:52:27;;;;;;;3.30;2.30;;;;;;;;;;6239330;28;20052;-75
2023/02/27 07:55:29;;;;;;;2.47;2.20;;;;;;;;;;6237796;28;20479;-74
2023/02/27 07:58:31;;;;;;;5.75;2.65;;;;;;;;;;6241464;28;20832;-75
2023/02/27 08:01:33;;;;;;;4.05;2.78;;;;;;;;;;6238580;28;20095;-75
2023/02/27 08:04:36;;;;;;;3.70;2.75;;;;;;;;;;6240517;28;20053;-76
2023/02/27 08:07:38;;;;;;;7.73;3.07;;;;;;;;;;6241705;28;20057;-75
2023/02/27 08:10:39;;;;;;;5.70;2.85;;;;;;;;;;6238723;28;20107;-74
2023/02/27 08:13:45;;;;;;;4.72;3.17;;;;;;;;;;6239090;28;20054;-72
2023/02/27 08:16:47;;;;;;;3.65;3.05;;;;;;;;;;6237540;28;20079;-75
2023/02/27 08:19:51;;;;;;;4.97;3.00;;;;;;;;;;6237268;28;20054;-74
2023/02/27 08:22:55;;;;;;;4.43;3.20;;;;;;;;;;6242094;28;20057;-75
2023/02/27 08:25:58;;;;;;;6.65;3.25;;;;;;;;;;6239074;28;20313;-75
2023/02/27 08:29:00;;;;;;;5.30;3.30;;;;;;;;;;6238392;28;20045;-74
2023/02/27 08:32:02;;;;;;;3.70;3.30;;;;;;;;;;6252879;28;20091;-74
2023/02/27 08:35:05;;;;;;;5.70;3.60;;;;;;;;;;6260617;28;20361;-75
2023/02/27 08:38:07;;;;;;;6.43;4.35;;;;;;;;;;6239662;28;20065;-73
2023/02/27 08:41:09;;;;;;;6.45;4.80;;;;;;;;;;6240816;28;20064;-74
2023/02/27 08:44:11;;;;;;;6.53;4.25;;;;;;;;;;6239525;28;20061;-75
2023/02/27 08:47:13;;;;;;;7.50;4.30;;;;;;;;;;6239915;28;20072;-74
2023/02/27 08:50:17;;;;;;;5.13;3.67;;;;;;;;;;6238519;28;20049;-74
2023/02/27 08:53:19;;;;;;;7.70;4.75;;;;;;;;;;6243408;28;20053;-74
2023/02/27 08:56:21;;;;;;;5.93;4.10;;;;;;;;;;6241788;28;20045;-74
2023/02/27 08:59:25;;;;;;;8.05;4.57;;;;;;;;;;6245054;28;20049;-75
2023/02/27 09:02:27;;;;;;;7.20;4.70;;;;;;;;;;6237713;28;20061;-74
2023/02/27 09:05:33;;;;;;;7.45;4.50;;;;;;;;;;6241514;28;20113;-74
2023/02/27 09:08:35;;;;;;;7.65;4.80;;;;;;;;;;6240201;28;20068;-74
2023/02/27 09:11:37;;;;;;;6.80;4.10;;;;;;;;;;6241737;28;20061;-74
2023/02/27 09:14:39;;;;;;;6.78;4.55;;;;;;;;;;6240030;28;20060;-74
2023/02/27 09:17:41;;;;;;;6.45;4.63;;;;;;;;;;6239250;28;20045;-74
2023/02/27 09:20:44;;;;;;;8.00;4.15;;;;;;;;;;6242890;28;20410;-75
2023/02/27 09:23:46;;;;;;;6.97;4.23;;;;;;;;;;6237382;28;20061;-73
2023/02/27 09:26:48;;;;;;;5.40;4.30;;;;;;;;;;6241212;28;20084;-74
2023/02/27 09:29:54;;;;;;;5.75;4.10;;;;;;;;;;6241416;28;20045;-74
2023/02/27 09:32:56;;;;;;;5.75;4.70;;;;;;;;;;6246887;28;20053;-74
2023/02/27 09:35:59;;;;;;;6.40;3.83;;;;;;;;;;6245632;28;20057;-74
2023/02/27 09:39:01;;;;;;;6.63;4.60;;;;;;;;;;6246359;28;20061;-74
2023/02/27 09:42:05;;;;;;;6.47;3.75;;;;;;;;;;6252605;28;20056;-74
2023/02/27 09:45:07;;;;;;;;;;;;;;;;;;6265434;28;20064;-71
2023/02/27 09:48:15;;;;;;;6.82;3.80;;;;;;;;;;6265851;28;19928;-70
2023/02/27 09:51:19;;;;;;;4.55;3.53;;;;;;;;;;6263013;28;20091;-74
2023/02/27 09:54:21;;;;;;;6.88;4.07;;;;;;;;;;6244775;28;20388;-74
2023/02/27 09:57:39;;;;;;;6.43;4.28;;;;;;;;;;6243447;28;20995;-74
2023/02/27 10:00:47;;;;;;;6.72;4.53;;;;;;;;;;6246232;28;20061;-74
2023/02/27 10:04:13;;;;;;;6.05;4.15;;;;;;;;;;6245148;28;20060;-74
2023/02/27 10:07:19;;;;;;;4.68;3.75;;;;;;;;;;6244471;28;20041;-74
2023/02/27 10:10:28;;;;;;;9.00;4.32;;;;;;;;;;6242095;28;20148;-74
2023/02/27 10:13:39;;;;;;;5.65;3.97;;;;;;;;;;6246320;28;20073;-74
2023/02/27 10:16:42;;;;;;;6.00;3.90;;;;;;;;;;6242703;28;20054;-74
2023/02/27 10:19:46;;;;;;;5.95;4.22;;;;;;;;;;6241659;28;20116;-74
2023/02/27 10:22:59;;;;;;;8.30;3.95;;;;;;;;;;6243177;28;20294;-74
2023/02/27 10:26:01;;;;;;;4.97;3.65;;;;;;;;;;6251599;28;20357;-74
2023/02/27 10:29:15;;;;;;;7.82;4.03;;;;;;;;;;6267477;28;20249;-74
2023/02/27 10:32:26;;;;;;;7.28;3.78;;;;;;;;;;6265977;28;20048;-74
2023/02/27 10:35:33;;;;;;;8.38;4.10;;;;;;;;;;6269875;28;20053;-73
2023/02/27 10:38:51;;;;;;;7.47;4.07;;;;;;;;;;6265096;28;20068;-74
2023/02/27 10:41:53;;;;;;;8.60;4.40;;;;;;;;;;6266001;28;20057;-73
2023/02/27 10:44:58;;;;;;;10.88;4.57;;;;;;;;;;6265920;28;20352;-76
2023/02/27 10:48:02;;;;;;;6.10;4.43;;;;;;;;;;6265828;28;20260;-75
2023/02/27 10:51:25;;;;;;;9.45;4.45;;;;;;;;;;6263842;28;20055;-75
2023/02/27 10:54:31;;;;;;;6.10;4.32;;;;;;;;;;6265648;28;20049;-75
2023/02/27 10:57:40;;;;;;;5.88;4.93;;;;;;;;;;6265646;28;20336;-75
2023/02/27 11:01:26;;;;;;;7.57;4.50;;;;;;;;;;6274025;28;20108;-73
2023/02/27 11:04:52;;;;;;;7.03;4.38;;;;;;;;;;6249187;28;20056;-75
2023/02/27 11:07:55;;;;;;;7.55;4.63;;;;;;;;;;6256055;28;20124;-76
2023/02/27 11:11:01;;;;;;;4.95;4.00;;;;;;;;;;6266322;28;20056;-74
2023/02/27 11:14:20;;;;;;;7.13;4.25;;;;;;;;;;6257340;28;20233;-74
2023/02/27 11:17:28;;;;;;;7.20;4.53;;;;;;;;;;6260459;28;20053;-72
2023/02/27 11:20:42;;;;;;;7.38;4.40;;;;;;;;;;6269028;28;20056;-76
2023/02/27 11:27:22;;;;;;;5.72;4.38;;;;;;;;;;6235890;28;19917;-74
2023/02/27 11:30:37;;;;;;;6.05;3.80;;;;;;;;;;6269007;28;20128;-79
2023/02/27 11:33:49;;;;;;;5.45;3.80;;;;;;;;;;6238604;28;20048;-77
2023/02/27 11:36:53;;;;;;;4.32;3.38;;;;;;;;;;6243535;28;20108;-77
2023/02/27 11:40:12;;;;;;;;;;;;;;;;;;;;;
2023/02/27 11:43:19;;;;;;;4.47;2.90;;;;;;;;;;6242533;28;20236;-78
2023/02/27 11:46:24;;;;;;;3.10;2.80;;;;;;;;;;6242498;28;20115;-78
2023/02/27 11:49:32;;;;;;;7.00;3.90;;;;;;;;;;6240504;28;20081;-78
2023/02/27 11:52:40;;;;;;;6.18;3.25;;;;;;;;;;6241479;28;20069;-77
2023/02/27 11:55:43;;;;;;;4.45;3.05;;;;;;;;;;6217985;28;20058;-78
2023/02/27 11:58:52;;;;;;;3.85;2.50;;;;;;;;;;6217644;28;20054;-78
2023/02/27 12:01:58;;;;;;;3.53;2.20;;;;;;;;;;6232042;28;20050;-74
2023/02/27 12:05:03;;;;;;;5.68;2.60;;;;;;;;;;6233203;28;20075;-71
2023/02/27 12:08:10;;;;;;;5.20;2.90;;;;;;;;;;6240233;28;20049;-71
2023/02/27 12:11:16;;;;;;;4.38;2.90;;;;;;;;;;6240534;28;20072;-72
2023/02/27 12:14:22;;;;;;;5.40;3.20;;;;;;;;;;6240333;28;20214;-73
2023/02/27 12:17:28;;;;;;;4.13;2.80;;;;;;;;;;6240866;28;20045;-72
2023/02/27 12:20:35;;;;;;;3.83;2.63;;;;;;;;;;6237776;28;20049;-73
2023/02/27 12:23:39;;;;;;;6.05;2.72;;;;;;;;;;6241037;28;20337;-73
2023/02/27 12:26:44;;;;;;;9.27;4.88;;;;;;;;;;6241354;28;20057;-72
2023/02/27 12:29:50;;;;;;;5.25;3.75;;;;;;;;;;6245431;28;20064;-74
2023/02/27 12:32:56;;;;;;;3.72;2.85;;;;;;;;;;6263489;28;20053;-73
2023/02/27 12:36:25;;;;;;;5.45;3.20;;;;;;;;;;6259481;28;20046;-73
2023/02/27 12:39:28;;;;;;;6.13;3.13;;;;;;;;;;6235194;28;20046;-73
2023/02/27 12:42:49;;;;;;;4.30;2.85;;;;;;;;;;6242858;28;20045;-73
2023/02/27 12:46:38;;;;;;;4.38;2.75;;;;;;;;;;6241378;28;20049;-73
2023/02/27 12:49:45;;;;;;;3.20;2.53;;;;;;;;;;6142807;28;20058;-72
2023/02/27 12:53:01;;;;;;;5.72;3.50;;;;;;;;;;6160687;28;20166;-73
2023/02/27 12:56:06;;;;;;;4.93;3.33;;;;;;;;;;6174273;28;20358;-73
2023/02/27 12:59:19;;;;;;;4.65;2.97;;;;;;;;;;6169921;28;20283;-74
2023/02/27 13:02:43;;;;;;;6.00;3.20;;;;;;;;;;6170327;28;20054;-74
2023/02/27 13:05:46;;;;;;;;;;;;;;;;;;6169557;28;20357;-73
2023/02/27 13:08:58;;;;;;;5.68;2.63;;;;;;;;;;6169327;28;19989;-73
2023/02/27 13:12:07;;;;;;;3.72;2.45;;;;;;;;;;6170117;28;20046;-74
2023/02/27 13:15:18;;;;;;;3.63;2.33;;;;;;;;;;6168538;28;20061;-75
2023/02/27 13:18:32;;;;;;;5.03;2.50;;;;;;;;;;6170258;28;20146;-74
2023/02/27 13:21:39;;;;;;;2.60;2.08;;;;;;;;;;6170482;28;20054;-75
2023/02/27 13:24:44;;;;;;;3.38;2.50;;;;;;;;;;6194028;28;20069;-74
2023/02/27 13:27:49;;;;;;;4.30;2.40;;;;;;;;;;6243438;28;20045;-74
2023/02/27 13:30:59;;;;;;;3.72;2.33;;;;;;;;;;6245280;28;20430;-74
2023/02/27 13:34:14;;;;;;;2.83;2.10;;;;;;;;;;6267165;28;20392;-75
2023/02/27 13:37:16;;;;;;;3.03;2.38;;;;;;;;;;6260946;28;20045;-74
2023/02/27 13:43:56;;;;;;;5.05;2.55;;;;;;;;;;6186844;28;20058;-75
2023/02/27 13:47:38;;;;;;;7.50;2.47;;;;;;;;;;6211989;28;20046;-75
2023/02/27 13:50:52;;;;;;;5.93;2.13;;;;;;;;;;6213323;28;20096;-74
2023/02/27 13:54:15;;;;;;;3.07;2.03;;;;;;;;;;6214879;28;20045;-75
2023/02/27 13:57:21;;;;;;;4.95;2.10;;;;;;;;;;6212151;28;20105;-74
2023/02/27 14:00:25;;;;;;;4.90;2.30;;;;;;;;;;6214305;28;20088;-74
2023/02/27 14:03:28;;;;;;;4.78;2.13;;;;;;;;;;6210476;28;20215;-74
2023/02/27 14:06:32;;;;;;;3.03;2.10;;;;;;;;;;6214908;28;20041;-76
2023/02/27 14:09:37;;;;;;;3.80;2.20;;;;;;;;;;6211941;28;20046;-75
2023/02/27 14:12:40;;;;;;;3.53;2.28;;;;;;;;;;6217229;28;20052;-73
2023/02/27 14:15:53;;;;;;;5.68;2.40;;;;;;;;;;6218149;28;20057;-75
2023/02/27 14:18:57;;;;;;;3.20;2.42;;;;;;;;;;6217432;28;20375;-75
2023/02/27 14:22:03;;;;;;;3.45;2.45;;;;;;;;;;6273582;28;20060;-76
2023/02/27 14:25:16;;;;;;;2.60;2.15;;;;;;;;;;6256839;28;20118;-75
2023/02/27 14:28:23;;;;;;;6.78;3.03;;;;;;;;;;6273440;28;20064;-75
2023/02/27 14:31:28;;;;;;;4.65;2.80;;;;;;;;;;6265726;28;20477;-75
2023/02/27 14:34:36;;;;;;;4.05;2.50;;;;;;;;;;6240906;28;20061;-75
2023/02/27 14:37:39;;;;;;;4.22;3.00;;;;;;;;;;6239578;28;20210;-75
2023/02/27 14:40:47;;;;;;;4.63;2.53;;;;;;;;;;6268273;28;20120;-75
2023/02/27 14:43:55;;;;;;;6.07;2.45;;;;;;;;;;6269289;28;20053;-75
2023/02/27 14:47:06;;;;;;;5.88;2.65;;;;;;;;;;6266255;28;20041;-76
2023/02/27 14:50:25;;;;;;;4.45;2.50;;;;;;;;;;6264983;28;20049;-76
2023/02/27 14:53:29;;;;;;;5.35;2.42;;;;;;;;;;6265622;28;20065;-75
2023/02/27 14:56:31;;;;;;;3.55;2.35;;;;;;;;;;6271326;28;20049;-75
2023/02/27 14:59:41;;;;;;;9.00;2.83;;;;;;;;;;6257677;28;20053;-75
2023/02/27 15:02:43;;;;;;;3.05;2.50;;;;;;;;;;6271832;28;20069;-76
2023/02/27 15:06:08;;;;;;;3.88;2.63;;;;;;;;;;6266379;28;20084;-74
2023/02/27 15:09:20;;;;;;;3.03;2.40;;;;;;;;;;6257741;28;20060;-77
2023/02/27 15:12:23;;;;;;;3.45;2.80;;;;;;;;;;6242488;28;20053;-74
2023/02/27 15:15:25;;;;;;;3.88;2.58;;;;;;;;;;6241520;28;20730;-73
2023/02/27 15:18:26;;;;;;;4.65;3.00;;;;;;;;;;6242935;28;20363;-75
2023/02/27 15:21:32;;;;;;;5.40;2.90;;;;;;;;;;6242734;28;20052;-76
2023/02/27 15:24:39;;;;;;;4.18;2.80;;;;;;;;;;6242392;28;20298;-72
2023/02/27 15:27:42;;;;;;;4.30;2.58;;;;;;;;;;6258385;28;20154;-75
2023/02/27 15:30:48;;;;;;;5.03;2.30;;;;;;;;;;6239764;28;20303;-74
2023/02/27 15:33:50;;;;;;;8.43;2.53;;;;;;;;;;6243653;28;20103;-74
2023/02/27 15:36:54;;;;;;;3.00;2.45;;;;;;;;;;6243891;28;20080;-76
2023/02/27 15:39:58;;;;;;;;;;;;;;;;;;6240954;28;20055;-75
2023/02/27 15:43:00;;;;;;;3.85;2.88;;;;;;;;;;6241168;28;20113;-75
2023/02/27 15:46:02;;;;;;;4.43;3.10;;;;;;;;;;6242062;28;20053;-75
2023/02/27 15:49:04;;;;;;;3.33;2.53;;;;;;;;;;6241282;28;20068;-75
2023/02/27 15:52:14;;;;;;;4.60;2.75;;;;;;;;;;6239112;28;20142;-74
2023/02/27 15:55:24;;;;;;;5.82;2.80;;;;;;;;;;6242388;28;20526;-74
2023/02/27 15:58:28;;;;;;;5.28;2.78;;;;;;;;;;6263581;28;20067;-75
2023/02/27 16:01:31;;;;;;;;;;;;;;;;;;6249929;28;20045;-74
2023/02/27 16:04:55;;;;;;;3.63;2.80;;;;;;;;;;6265264;28;19984;-74
2023/02/27 16:08:02;;;;;;;3.63;2.67;;;;;;;;;;6265851;28;20120;-72
2023/02/27 16:11:06;;;;;;;4.18;2.80;;;;;;;;;;6262092;28;20050;-74
2023/02/27 16:14:39;;;;;;;5.40;3.10;;;;;;;;;;6265617;28;20165;-74
2023/02/27 16:18:06;;;;;;;4.80;2.65;;;;;;;;;;6264014;28;20108;-74
2023/02/27 16:21:14;;;;;;;4.72;3.17;;;;;;;;;;6263501;28;21147;-74
2023/02/27 16:24:20;;;;;;;4.65;2.70;;;;;;;;;;6264365;28;20121;-74
2023/02/27 16:27:25;;;;;;;4.40;3.42;;;;;;;;;;6262593;28;20124;-75
2023/02/27 16:30:27;;;;;;;5.10;2.95;;;;;;;;;;6265145;28;20249;-73
2023/02/27 16:36:56;;;;;;;4.55;3.53;;;;;;;;;;6265121;28;20116;-73
2023/02/27 16:43:55;;;;;;;4.05;2.97;;;;;;;;;;6226074;28;20060;-74
2023/02/27 16:46:58;;;;;;;4.82;3.10;;;;;;;;;;6265102;28;20053;-75
2023/02/27 16:50:00;;;;;;;4.18;2.90;;;;;;;;;;6266982;28;20052;-74
2023/02/27 16:53:02;;;;;;;4.07;3.25;;;;;;;;;;6268086;28;20060;-75
2023/02/27 16:56:04;;;;;;;5.40;3.20;;;;;;;;;;6263178;28;20060;-75
2023/02/27 16:59:26;;;;;;;4.97;2.97;;;;;;;;;;6265942;28;20140;-75
2023/02/27 17:02:28;;;;;;;3.65;2.75;;;;;;;;;;6261692;28;20141;-74
2023/02/27 17:05:30;;;;;;;3.88;3.20;;;;;;;;;;6265741;28;20059;-76
2023/02/27 17:08:32;;;;;;;5.80;3.17;;;;;;;;;;6268326;28;20053;-74
2023/02/27 17:11:34;;;;;;;7.43;3.40;;;;;;;;;;6263402;28;20256;-73
2023/02/27 17:14:38;;;;;;;5.18;3.05;;;;;;;;;;6262433;28;20049;-74
2023/02/27 17:17:40;;;;;;;4.40;3.03;;;;;;;;;;6254287;28;20053;-74
2023/02/27 17:20:42;;;;;;;6.55;3.40;;;;;;;;;;6268279;28;20052;-74
2023/02/27 17:23:45;;;;;;;6.63;3.13;;;;;;;;;;6268351;28;20107;-73
2023/02/27 17:27:06;;;;;;;6.22;3.45;;;;;;;;;;6265284;28;20115;-74
2023/02/27 17:30:11;;;;;;;5.28;3.40;;;;;;;;;;6237938;28;20049;-73
2023/02/27 17:33:40;;;;;;;5.82;3.92;;;;;;;;;;6236797;28;20041;-74
2023/02/27 17:40:16;;;;;;;5.25;3.78;;;;;;;;;;6228426;28;20046;-74
2023/02/27 17:43:18;;;;;;;5.15;3.47;;;;;;;;;;6238397;28;20065;-74
2023/02/27 17:46:22;;;;;;;6.30;3.60;;;;;;;;;;6237233;28;20357;-73
2023/02/27 17:49:25;;;;;;;4.53;3.70;;;;;;;;;;6239238;28;20357;-74
2023/02/27 17:52:27;;;;;;;4.88;3.58;;;;;;;;;;6238876;28;20363;-74
2023/02/27 17:55:30;;;;;;;5.80;3.95;;;;;;;;;;6263298;28;20079;-73
2023/02/27 17:58:32;;;;;;;5.75;4.15;;;;;;;;;;6269634;28;20090;-74
2023/02/27 18:01:38;;;;;;;8.07;3.97;;;;;;;;;;6269714;28;20059;-73
2023/02/27 18:04:41;;;;;;;6.80;3.85;;;;;;;;;;6270363;28;20067;-74
2023/02/27 18:07:43;;;;;;;11.53;4.10;;;;;;;;;;6266149;28;20052;-74
2023/02/27 18:10:47;;;;;;;6.22;3.85;;;;;;;;;;6268302;28;20045;-74
2023/02/27 18:13:59;;;;;;;7.88;4.40;;;;;;;;;;6270628;28;20079;-74
2023/02/27 18:17:12;;;;;;;;;;;;;;;;;;;;;
2023/02/27 18:20:15;;;;;;;6.97;4.20;;;;;;;;;;6240016;28;20095;-73
2023/02/27 18:23:17;;;;;;;5.60;4.32;;;;;;;;;;6246183;28;20045;-73
2023/02/27 18:26:20;;;;;;;5.53;4.07;;;;;;;;;;6244386;28;20052;-74
2023/02/27 18:29:22;;;;;;;6.03;4.28;;;;;;;;;;6242670;28;20135;-74
2023/02/27 18:32:25;;;;;;;9.88;4.45;;;;;;;;;;6240754;28;20053;-74
2023/02/27 18:35:31;;;;;;;6.22;4.30;;;;;;;;;;6265194;28;20049;-74
2023/02/27 18:38:33;;;;;;;6.15;4.55;;;;;;;;;;6266870;28;20053;-74
2023/02/27 18:41:35;;;;;;;6.75;4.30;;;;;;;;;;6266857;28;20050;-75
2023/02/27 18:44:39;;;;;;;7.38;4.88;;;;;;;;;;6270107;28;20131;-74
2023/02/27 18:47:42;;;;;;;;;;;;;;;;;;6266799;28;20053;-74
2023/02/27 18:50:44;;;;;;;6.53;4.78;;;;;;;;;;6267694;28;19925;-71
2023/02/27 18:53:48;;;;;;;7.53;5.25;;;;;;;;;;6266790;28;20053;-72
2023/02/27 18:56:51;;;;;;;10.90;5.15;;;;;;;;;;6266680;28;20130;-71
2023/02/27 18:59:59;;;;;;;8.80;5.38;;;;;;;;;;6266328;28;20060;-75
2023/02/27 19:03:02;;;;;;;8.93;5.57;;;;;;;;;;6255512;28;20067;-74
2023/02/27 19:06:04;;;;;;;9.23;5.18;;;;;;;;;;6265284;28;20049;-73